Flight Track Log - Related Links

Times and Time Zones

All times are in EDT time to prevent confusion due to time zone crossing. See the SWA1521 flight status page for this flight to view local times or setup timezone preferences in your user account.

Time Position Orientation Groundspeed Altitude Reporting Facility
EDT Latitude Longitude Course Direction KTS MPH feet Rate Location/Type
Tue 11:41:11 PM 38.7500 -121.5833 31° Northeast 207 238 2,700  Level Northern Cal TRACON
Tue 11:42:05 PM 38.7167 -121.5167 123° Southeast 263 303 4,600 3,158 Climbing Northern Cal TRACON
Tue 11:43:43 PM 38.6392 -121.3803 126° Southeast 293 337 10,700 3,434 Climbing Oakland Center
Tue 11:44:44 PM 38.5847 -121.2811 125° Southeast 326 375 13,700 3,049 Climbing Oakland Center
Tue 11:45:45 PM 38.5178 -121.1694 127° Southeast 358 412 16,900 3,246 Climbing Oakland Center
Tue 11:46:00 PM 38.3072 -120.9824 109° East  Level FlightAware Approximate
Tue 11:46:46 PM 38.4489 -121.0522 127° Southeast 396 456 20,300  Level Oakland Center
Tue 11:47:47 PM 38.3786 -120.9303 126° Southeast 418 481 23,000 2,361 Climbing Oakland Center
Tue 11:48:48 PM 38.3044 -120.8039 127° Southeast 441 507 25,100 2,213 Climbing Oakland Center
Tue 11:49:49 PM 38.2256 -120.6769 128° Southeast 455 524 27,500 2,164 Climbing Oakland Center
Tue 11:50:50 PM 38.1250 -120.5756 142° Southeast 463 533 29,500 1,835 Climbing Oakland Center
Tue 11:51:50 PM 38.0183 -120.4722 143° Southeast 479 551 31,200 1,983 Climbing Oakland Center
Tue 11:52:51 PM 37.9125 -120.3681 142° Southeast 482 555 33,500 2,016 Climbing Oakland Center
Tue 11:53:52 PM 37.7919 -120.3064 158° South 471 542 35,300 1,770 Climbing Oakland Center
Tue 11:54:53 PM 37.6622 -120.2719 168° South 472 543 37,100 1,820 Climbing Oakland Center
Tue 11:55:54 PM 37.5369 -120.2389 168° South 462 532 39,000 934 Climbing Oakland Center
Tue 11:56:55 PM 37.4131 -120.2050 168° South 456 525 39,000  Level Oakland Center
Tue 11:57:56 PM 37.2594 -120.1683 169° South 468 539 39,000  Level Oakland Center
Tue 11:58:57 PM 37.1347 -120.1333 167° South 457 526 39,000  Level Oakland Center
Tue 11:59:58 PM 37.0239 -120.1033 168° South 447 514 39,000  Level Oakland Center
Wed 12:00:59 AM 36.8972 -120.0694 168° South 461 531 39,000  Level Oakland Center
Wed 12:02:00 AM 36.7725 -120.0358 168° South 456 525 39,000  Level Oakland Center
Wed 12:03:01 AM 36.6481 -120.0019 168° South 453 521 39,000  Level Oakland Center
Wed 12:04:02 AM 36.5231 -119.9675 168° South 455 524 39,000  Level Oakland Center
Wed 12:05:03 AM 36.3747 -119.9275 168° South 452 520 39,000  Level Oakland Center
Wed 12:06:04 AM 36.2536 -119.8958 168° South 444 511 39,000  Level Oakland Center
Wed 12:07:05 AM 36.1339 -119.8644 168° South 441 507 39,000  Level Oakland Center
Wed 12:08:05 AM 36.0139 -119.8333 168° South 438 504 39,000  Level Oakland Center
Wed 12:09:06 AM 35.8969 -119.8067 170° South 429 494 39,000  Level Oakland Center
Wed 12:10:07 AM 35.7761 -119.7753 168° South 437 503 39,000  Level Oakland Center
Wed 12:11:08 AM 35.6536 -119.7428 168° South 444 511 39,000  Level Oakland Center
Wed 12:12:09 AM 35.5339 -119.7122 168° South 440 506 39,000  Level Oakland Center
Wed 12:13:10 AM 35.4119 -119.6817 168° South 441 507 39,000  Level Oakland Center
Wed 12:13:35 AM 35.3669 -119.6692 167° South 439 505 39,000  Level Los Angeles Center
Wed 12:14:36 AM 35.2711 -119.6439 168° South 438 504 39,000 -1,366 Level Los Angeles Center
Wed 12:15:38 AM 35.1433 -119.5453 148° Southeast 454 522 36,200 -3,024 Descending Los Angeles Center
Wed 12:16:39 AM 35.0375 -119.4533 145° Southeast 462 532 32,800 -2,829 Descending Los Angeles Center
Wed 12:17:41 AM 34.9331 -119.3658 146° Southeast 459 528 30,400 -2,585 Descending Los Angeles Center
Wed 12:18:42 AM 34.8136 -119.2664 146° Southeast 439 505 27,500 -2,508 Descending Los Angeles Center
Wed 12:19:43 AM 34.7192 -119.1867 145° Southeast 419 482 25,300 -2,115 Descending Los Angeles Center
Wed 12:20:44 AM 34.6317 -119.1133 145° Southeast 404 465 23,200 -2,098 Descending Los Angeles Center
Wed 12:21:46 AM 34.5439 -119.0378 145° Southeast 383 441 21,000 -2,098 Descending Los Angeles Center
Wed 12:22:47 AM 34.4597 -118.9692 146° Southeast 364 419 18,900 -2,066 Descending Los Angeles Center
Wed 12:23:48 AM 34.3769 -118.8989 145° Southeast 354 407 16,800 -2,066 Descending Los Angeles Center
Wed 12:24:49 AM 34.2872 -118.8558 158° South 345 397 14,700 -2,049 Descending Los Angeles Center
Wed 12:25:51 AM 34.1972 -118.8228 163° South 339 390 12,600 -2,000 Descending Los Angeles Center
Wed 12:26:52 AM 34.0928 -118.7836 163° South 328 377 10,600 -1,164 Descending Los Angeles Center
Wed 12:28:05 AM 34.0508 -118.6947 120° Southeast 337 388 10,000 -582 Descending Los Angeles Center
Wed 12:29:06 AM 34.0294 -118.5708 102° East 297 342 9,300 -1,230 Descending Los Angeles Center
Wed 12:30:07 AM 34.0144 -118.4833 102° East 271 312 7,500 -2,262 Descending Los Angeles Center
Wed 12:31:08 AM 34.0186 -118.3972 87° East 259 298 4,700 -2,390 Descending Los Angeles Center
Wed 12:32:10 AM 34.0275 -118.3156 82° East 252 290 2,600 -1,113 Descending Los Angeles Center
Wed 12:33:12 AM 34.0228 -118.2514 95° East 211 243 2,400 -197 Descending Los Angeles Center
Wed 12:34:12 AM 33.9811 -118.2592 189° South 169 194 2,200 -298 Descending Los Angeles Center
Wed 12:35:13 AM 33.9617 -118.3031 242° Southwest 155 178 1,800 -590 Descending Los Angeles Center
Wed 12:36:14 AM 33.9578 -118.3467 264° West 142 163 1,000 -689 Descending Los Angeles Center
Wed 12:37:15 AM 33.9547 -118.3875 265° West 131 151 400 -590 Descending Los Angeles Center
Wed 12:39:00 AM 33.9333 -118.4000 228° Southwest  Level FlightAware Approximate

Login

Don't have an account? Register now (free) for customized features, flight alerts, and more!